sensor_id;sensor_type;location;lat;lon;timestamp;P1;durP1;ratioP1;P2;durP2;ratioP2
5054;SDS011;13829;48.990;8.346;2022-08-19T00:00:37;16.75;;;15.15;;
5054;SDS011;13829;48.990;8.346;2022-08-19T00:03:05;15.45;;;13.95;;
5054;SDS011;13829;48.990;8.346;2022-08-19T00:05:33;17.20;;;15.27;;
5054;SDS011;13829;48.990;8.346;2022-08-19T00:08:00;16.65;;;14.95;;
5054;SDS011;13829;48.990;8.346;2022-08-19T00:10:29;16.65;;;14.95;;
5054;SDS011;13829;48.990;8.346;2022-08-19T00:12:56;15.77;;;14.23;;
5054;SDS011;13829;48.990;8.346;2022-08-19T00:15:23;15.93;;;14.52;;
5054;SDS011;13829;48.990;8.346;2022-08-19T00:17:50;16.73;;;14.95;;
5054;SDS011;13829;48.990;8.346;2022-08-19T00:20:18;17.00;;;14.98;;
5054;SDS011;13829;48.990;8.346;2022-08-19T00:22:47;16.67;;;15.07;;
5054;SDS011;13829;48.990;8.346;2022-08-19T00:25:15;16.38;;;14.82;;
5054;SDS011;13829;48.990;8.346;2022-08-19T00:27:44;18.02;;;14.93;;
5054;SDS011;13829;48.990;8.346;2022-08-19T00:30:12;17.08;;;15.38;;
5054;SDS011;13829;48.990;8.346;2022-08-19T00:32:40;17.90;;;16.13;;
5054;SDS011;13829;48.990;8.346;2022-08-19T00:35:07;17.58;;;15.80;;
5054;SDS011;13829;48.990;8.346;2022-08-19T00:37:35;17.25;;;15.57;;
5054;SDS011;13829;48.990;8.346;2022-08-19T00:40:04;17.88;;;16.17;;
5054;SDS011;13829;48.990;8.346;2022-08-19T00:42:34;17.85;;;16.15;;
5054;SDS011;13829;48.990;8.346;2022-08-19T00:45:02;18.52;;;16.50;;
5054;SDS011;13829;48.990;8.346;2022-08-19T00:47:38;18.30;;;16.50;;
5054;SDS011;13829;48.990;8.346;2022-08-19T00:50:06;18.45;;;16.65;;
5054;SDS011;13829;48.990;8.346;2022-08-19T00:52:38;18.42;;;16.60;;
5054;SDS011;13829;48.990;8.346;2022-08-19T00:55:10;17.65;;;15.95;;
5054;SDS011;13829;48.990;8.346;2022-08-19T00:57:44;17.45;;;15.75;;
5054;SDS011;13829;48.990;8.346;2022-08-19T01:00:18;18.83;;;16.83;;
5054;SDS011;13829;48.990;8.346;2022-08-19T01:02:46;18.15;;;16.45;;
5054;SDS011;13829;48.990;8.346;2022-08-19T01:05:14;19.05;;;17.10;;
5054;SDS011;13829;48.990;8.346;2022-08-19T01:07:46;17.80;;;16.20;;
5054;SDS011;13829;48.990;8.346;2022-08-19T01:10:16;18.70;;;16.98;;
5054;SDS011;13829;48.990;8.346;2022-08-19T01:12:49;18.33;;;16.58;;
5054;SDS011;13829;48.990;8.346;2022-08-19T01:15:21;19.40;;;17.40;;
5054;SDS011;13829;48.990;8.346;2022-08-19T01:17:54;20.42;;;18.40;;
5054;SDS011;13829;48.990;8.346;2022-08-19T01:20:23;21.42;;;19.23;;
5054;SDS011;13829;48.990;8.346;2022-08-19T01:22:53;21.20;;;19.23;;
5054;SDS011;13829;48.990;8.346;2022-08-19T01:25:24;19.40;;;17.60;;
5054;SDS011;13829;48.990;8.346;2022-08-19T01:27:57;20.60;;;18.50;;
5054;SDS011;13829;48.990;8.346;2022-08-19T01:30:25;20.45;;;18.45;;
5054;SDS011;13829;48.990;8.346;2022-08-19T01:32:57;22.48;;;20.27;;
5054;SDS011;13829;48.990;8.346;2022-08-19T01:35:26;22.05;;;19.95;;
5054;SDS011;13829;48.990;8.346;2022-08-19T01:37:58;20.85;;;18.92;;
5054;SDS011;13829;48.990;8.346;2022-08-19T01:40:33;22.83;;;20.30;;
5054;SDS011;13829;48.990;8.346;2022-08-19T01:43:03;21.45;;;19.40;;
5054;SDS011;13829;48.990;8.346;2022-08-19T01:45:32;24.45;;;21.83;;
5054;SDS011;13829;48.990;8.346;2022-08-19T01:48:00;23.80;;;21.45;;
5054;SDS011;13829;48.990;8.346;2022-08-19T01:50:29;23.35;;;20.90;;
5054;SDS011;13829;48.990;8.346;2022-08-19T01:52:59;23.58;;;21.27;;
5054;SDS011;13829;48.990;8.346;2022-08-19T01:55:29;24.23;;;21.85;;
5054;SDS011;13829;48.990;8.346;2022-08-19T01:57:58;24.92;;;22.23;;
5054;SDS011;13829;48.990;8.346;2022-08-19T02:00:31;21.95;;;19.75;;
5054;SDS011;13829;48.990;8.346;2022-08-19T02:02:59;22.58;;;20.42;;
5054;SDS011;13829;48.990;8.346;2022-08-19T02:05:27;23.92;;;21.58;;
5054;SDS011;13829;48.990;8.346;2022-08-19T02:07:54;23.80;;;21.42;;
5054;SDS011;13829;48.990;8.346;2022-08-19T02:10:22;24.27;;;21.77;;
5054;SDS011;13829;48.990;8.346;2022-08-19T02:12:50;23.02;;;20.80;;
5054;SDS011;13829;48.990;8.346;2022-08-19T02:15:17;24.35;;;21.85;;
5054;SDS011;13829;48.990;8.346;2022-08-19T02:17:47;22.75;;;20.35;;
5054;SDS011;13829;48.990;8.346;2022-08-19T02:20:14;24.33;;;21.92;;
5054;SDS011;13829;48.990;8.346;2022-08-19T02:22:42;23.88;;;21.52;;
5054;SDS011;13829;48.990;8.346;2022-08-19T02:25:10;23.40;;;20.85;;
5054;SDS011;13829;48.990;8.346;2022-08-19T02:27:41;23.67;;;21.38;;
5054;SDS011;13829;48.990;8.346;2022-08-19T02:30:10;24.13;;;21.60;;
5054;SDS011;13829;48.990;8.346;2022-08-19T02:32:41;28.02;;;25.02;;
5054;SDS011;13829;48.990;8.346;2022-08-19T02:35:09;25.42;;;22.88;;
5054;SDS011;13829;48.990;8.346;2022-08-19T02:37:38;25.90;;;23.30;;
5054;SDS011;13829;48.990;8.346;2022-08-19T02:40:22;26.27;;;23.63;;
5054;SDS011;13829;48.990;8.346;2022-08-19T02:42:51;31.90;;;25.67;;
5054;SDS011;13829;48.990;8.346;2022-08-19T02:45:18;26.20;;;23.38;;
5054;SDS011;13829;48.990;8.346;2022-08-19T02:47:45;26.63;;;23.83;;
5054;SDS011;13829;48.990;8.346;2022-08-19T02:50:12;26.42;;;23.10;;
5054;SDS011;13829;48.990;8.346;2022-08-19T02:52:40;27.17;;;24.33;;
5054;SDS011;13829;48.990;8.346;2022-08-19T02:55:07;25.73;;;22.83;;
5054;SDS011;13829;48.990;8.346;2022-08-19T02:57:35;26.85;;;22.75;;
5054;SDS011;13829;48.990;8.346;2022-08-19T03:00:05;27.00;;;24.13;;
5054;SDS011;13829;48.990;8.346;2022-08-19T03:02:34;27.92;;;24.95;;
5054;SDS011;13829;48.990;8.346;2022-08-19T03:05:02;27.05;;;24.23;;
5054;SDS011;13829;48.990;8.346;2022-08-19T03:07:31;25.48;;;22.98;;
5054;SDS011;13829;48.990;8.346;2022-08-19T03:09:58;25.08;;;22.48;;
5054;SDS011;13829;48.990;8.346;2022-08-19T03:12:25;25.13;;;22.48;;
5054;SDS011;13829;48.990;8.346;2022-08-19T03:14:52;26.90;;;24.20;;
5054;SDS011;13829;48.990;8.346;2022-08-19T03:17:20;27.15;;;24.25;;
5054;SDS011;13829;48.990;8.346;2022-08-19T03:19:48;26.63;;;23.88;;
5054;SDS011;13829;48.990;8.346;2022-08-19T03:22:15;26.88;;;24.17;;
5054;SDS011;13829;48.990;8.346;2022-08-19T03:24:42;27.25;;;24.55;;
5054;SDS011;13829;48.990;8.346;2022-08-19T03:27:09;26.38;;;23.67;;
5054;SDS011;13829;48.990;8.346;2022-08-19T03:29:36;28.50;;;23.27;;
5054;SDS011;13829;48.990;8.346;2022-08-19T03:32:04;28.08;;;25.15;;
5054;SDS011;13829;48.990;8.346;2022-08-19T03:34:34;28.42;;;25.58;;
5054;SDS011;13829;48.990;8.346;2022-08-19T03:37:04;27.17;;;24.38;;
5054;SDS011;13829;48.990;8.346;2022-08-19T03:39:35;29.65;;;25.73;;
5054;SDS011;13829;48.990;8.346;2022-08-19T03:42:04;30.88;;;26.10;;
5054;SDS011;13829;48.990;8.346;2022-08-19T03:44:31;27.90;;;25.05;;
5054;SDS011;13829;48.990;8.346;2022-08-19T03:47:01;28.63;;;25.55;;
5054;SDS011;13829;48.990;8.346;2022-08-19T03:49:29;30.55;;;24.52;;
5054;SDS011;13829;48.990;8.346;2022-08-19T03:52:01;26.08;;;23.50;;
5054;SDS011;13829;48.990;8.346;2022-08-19T03:54:33;27.17;;;24.35;;
5054;SDS011;13829;48.990;8.346;2022-08-19T03:57:03;27.40;;;24.48;;
5054;SDS011;13829;48.990;8.346;2022-08-19T03:59:31;26.58;;;23.88;;
5054;SDS011;13829;48.990;8.346;2022-08-19T04:02:01;28.52;;;24.65;;
5054;SDS011;13829;48.990;8.346;2022-08-19T04:04:34;28.52;;;24.48;;
5054;SDS011;13829;48.990;8.346;2022-08-19T04:07:03;30.88;;;26.58;;
5054;SDS011;13829;48.990;8.346;2022-08-19T04:09:31;30.10;;;26.85;;
5054;SDS011;13829;48.990;8.346;2022-08-19T04:12:02;29.55;;;26.48;;
5054;SDS011;13829;48.990;8.346;2022-08-19T04:14:31;30.42;;;27.17;;
5054;SDS011;13829;48.990;8.346;2022-08-19T04:17:00;31.45;;;28.10;;
5054;SDS011;13829;48.990;8.346;2022-08-19T04:19:31;32.88;;;29.38;;
5054;SDS011;13829;48.990;8.346;2022-08-19T04:22:00;29.33;;;26.30;;
5054;SDS011;13829;48.990;8.346;2022-08-19T04:24:30;30.58;;;27.38;;
5054;SDS011;13829;48.990;8.346;2022-08-19T04:26:58;32.80;;;27.98;;
5054;SDS011;13829;48.990;8.346;2022-08-19T04:29:27;31.98;;;28.48;;
5054;SDS011;13829;48.990;8.346;2022-08-19T04:31:56;31.35;;;27.17;;
5054;SDS011;13829;48.990;8.346;2022-08-19T04:34:26;30.15;;;27.00;;
5054;SDS011;13829;48.990;8.346;2022-08-19T04:36:55;30.88;;;27.55;;
5054;SDS011;13829;48.990;8.346;2022-08-19T04:39:25;28.17;;;25.33;;
5054;SDS011;13829;48.990;8.346;2022-08-19T04:42:11;30.45;;;27.15;;
5054;SDS011;13829;48.990;8.346;2022-08-19T04:44:56;29.38;;;26.27;;
5054;SDS011;13829;48.990;8.346;2022-08-19T04:47:24;29.52;;;26.02;;
5054;SDS011;13829;48.990;8.346;2022-08-19T04:49:51;27.88;;;24.98;;
5054;SDS011;13829;48.990;8.346;2022-08-19T04:52:18;32.00;;;28.58;;
5054;SDS011;13829;48.990;8.346;2022-08-19T04:54:45;28.73;;;25.67;;
5054;SDS011;13829;48.990;8.346;2022-08-19T04:57:14;28.70;;;24.80;;
5054;SDS011;13829;48.990;8.346;2022-08-19T04:59:41;28.25;;;25.38;;
5054;SDS011;13829;48.990;8.346;2022-08-19T05:02:08;33.20;;;29.08;;
5054;SDS011;13829;48.990;8.346;2022-08-19T05:04:36;27.80;;;24.92;;
5054;SDS011;13829;48.990;8.346;2022-08-19T05:07:04;29.33;;;25.35;;
5054;SDS011;13829;48.990;8.346;2022-08-19T05:09:31;26.85;;;24.05;;
5054;SDS011;13829;48.990;8.346;2022-08-19T05:11:58;27.30;;;24.38;;
5054;SDS011;13829;48.990;8.346;2022-08-19T05:14:27;28.42;;;25.42;;
5054;SDS011;13829;48.990;8.346;2022-08-19T05:16:54;27.60;;;23.55;;
5054;SDS011;13829;48.990;8.346;2022-08-19T05:19:21;32.55;;;28.02;;
5054;SDS011;13829;48.990;8.346;2022-08-19T05:22:05;30.27;;;24.13;;
5054;SDS011;13829;48.990;8.346;2022-08-19T05:24:50;32.47;;;29.10;;
5054;SDS011;13829;48.990;8.346;2022-08-19T05:27:17;27.20;;;24.38;;
5054;SDS011;13829;48.990;8.346;2022-08-19T05:29:45;28.45;;;25.55;;
5054;SDS011;13829;48.990;8.346;2022-08-19T05:32:12;26.10;;;23.33;;
5054;SDS011;13829;48.990;8.346;2022-08-19T05:34:39;27.90;;;24.65;;
5054;SDS011;13829;48.990;8.346;2022-08-19T05:37:06;27.75;;;24.88;;
5054;SDS011;13829;48.990;8.346;2022-08-19T05:39:35;29.27;;;26.30;;
5054;SDS011;13829;48.990;8.346;2022-08-19T05:42:04;27.27;;;24.50;;
5054;SDS011;13829;48.990;8.346;2022-08-19T05:44:37;29.60;;;25.63;;
5054;SDS011;13829;48.990;8.346;2022-08-19T05:47:11;27.45;;;24.55;;
5054;SDS011;13829;48.990;8.346;2022-08-19T05:49:40;25.63;;;22.77;;
5054;SDS011;13829;48.990;8.346;2022-08-19T05:52:10;24.58;;;21.92;;
5054;SDS011;13829;48.990;8.346;2022-08-19T05:54:42;27.70;;;24.73;;
5054;SDS011;13829;48.990;8.346;2022-08-19T05:57:12;26.92;;;24.05;;
5054;SDS011;13829;48.990;8.346;2022-08-19T05:59:40;25.73;;;23.15;;
5054;SDS011;13829;48.990;8.346;2022-08-19T06:02:07;25.50;;;23.00;;
5054;SDS011;13829;48.990;8.346;2022-08-19T06:04:35;21.77;;;19.58;;
5054;SDS011;13829;48.990;8.346;2022-08-19T06:07:02;24.63;;;21.98;;
5054;SDS011;13829;48.990;8.346;2022-08-19T06:09:29;22.23;;;19.88;;
5054;SDS011;13829;48.990;8.346;2022-08-19T06:11:57;26.35;;;22.23;;
5054;SDS011;13829;48.990;8.346;2022-08-19T06:14:29;26.17;;;23.38;;
5054;SDS011;13829;48.990;8.346;2022-08-19T06:16:59;25.20;;;22.70;;
5054;SDS011;13829;48.990;8.346;2022-08-19T06:19:27;25.75;;;23.05;;
5054;SDS011;13829;48.990;8.346;2022-08-19T06:21:58;25.05;;;22.17;;
5054;SDS011;13829;48.990;8.346;2022-08-19T06:24:27;27.10;;;23.80;;
5054;SDS011;13829;48.990;8.346;2022-08-19T06:26:55;25.50;;;22.90;;
5054;SDS011;13829;48.990;8.346;2022-08-19T06:29:24;25.38;;;22.77;;
5054;SDS011;13829;48.990;8.346;2022-08-19T06:31:55;26.17;;;23.58;;
5054;SDS011;13829;48.990;8.346;2022-08-19T06:34:25;27.33;;;24.52;;
5054;SDS011;13829;48.990;8.346;2022-08-19T06:36:54;24.92;;;22.30;;
5054;SDS011;13829;48.990;8.346;2022-08-19T06:39:28;25.50;;;22.92;;
5054;SDS011;13829;48.990;8.346;2022-08-19T06:41:59;24.60;;;22.10;;
5054;SDS011;13829;48.990;8.346;2022-08-19T06:44:32;22.55;;;20.23;;
5054;SDS011;13829;48.990;8.346;2022-08-19T06:47:03;24.45;;;21.10;;
5054;SDS011;13829;48.990;8.346;2022-08-19T06:49:33;24.38;;;21.65;;
5054;SDS011;13829;48.990;8.346;2022-08-19T06:52:01;23.98;;;21.40;;
5054;SDS011;13829;48.990;8.346;2022-08-19T06:54:31;23.95;;;21.52;;
5054;SDS011;13829;48.990;8.346;2022-08-19T06:56:58;21.77;;;19.58;;
5054;SDS011;13829;48.990;8.346;2022-08-19T06:59:28;22.65;;;20.25;;
5054;SDS011;13829;48.990;8.346;2022-08-19T07:01:58;23.38;;;20.70;;
5054;SDS011;13829;48.990;8.346;2022-08-19T07:04:29;22.83;;;20.35;;
5054;SDS011;13829;48.990;8.346;2022-08-19T07:06:59;20.67;;;18.63;;
5054;SDS011;13829;48.990;8.346;2022-08-19T07:09:34;22.67;;;20.52;;
5054;SDS011;13829;48.990;8.346;2022-08-19T07:12:04;23.67;;;21.23;;
5054;SDS011;13829;48.990;8.346;2022-08-19T07:14:34;22.13;;;19.70;;
5054;SDS011;13829;48.990;8.346;2022-08-19T07:17:03;20.23;;;18.35;;
5054;SDS011;13829;48.990;8.346;2022-08-19T07:19:34;26.42;;;20.23;;
5054;SDS011;13829;48.990;8.346;2022-08-19T07:22:02;23.15;;;20.70;;
5054;SDS011;13829;48.990;8.346;2022-08-19T07:24:31;22.45;;;20.13;;
5054;SDS011;13829;48.990;8.346;2022-08-19T07:27:01;21.13;;;18.58;;
5054;SDS011;13829;48.990;8.346;2022-08-19T07:29:31;20.92;;;18.83;;
5054;SDS011;13829;48.990;8.346;2022-08-19T07:32:01;22.98;;;19.65;;
5054;SDS011;13829;48.990;8.346;2022-08-19T07:34:31;22.77;;;20.55;;
5054;SDS011;13829;48.990;8.346;2022-08-19T07:37:02;20.08;;;18.05;;
5054;SDS011;13829;48.990;8.346;2022-08-19T07:39:30;21.23;;;19.17;;
5054;SDS011;13829;48.990;8.346;2022-08-19T07:42:03;21.15;;;18.83;;
5054;SDS011;13829;48.990;8.346;2022-08-19T07:44:34;19.17;;;17.20;;
5054;SDS011;13829;48.990;8.346;2022-08-19T07:47:02;20.92;;;16.95;;
5054;SDS011;13829;48.990;8.346;2022-08-19T07:49:31;19.05;;;16.92;;
5054;SDS011;13829;48.990;8.346;2022-08-19T07:52:02;18.50;;;16.60;;
5054;SDS011;13829;48.990;8.346;2022-08-19T07:54:33;18.73;;;17.02;;
5054;SDS011;13829;48.990;8.346;2022-08-19T07:57:06;18.50;;;16.58;;
5054;SDS011;13829;48.990;8.346;2022-08-19T07:59:34;18.10;;;16.17;;
5054;SDS011;13829;48.990;8.346;2022-08-19T08:02:02;16.42;;;14.68;;
5054;SDS011;13829;48.990;8.346;2022-08-19T08:04:29;18.05;;;16.38;;
5054;SDS011;13829;48.990;8.346;2022-08-19T08:07:15;15.45;;;14.15;;
5054;SDS011;13829;48.990;8.346;2022-08-19T08:10:01;17.27;;;15.68;;
5054;SDS011;13829;48.990;8.346;2022-08-19T08:12:31;17.23;;;15.60;;
5054;SDS011;13829;48.990;8.346;2022-08-19T08:15:05;16.88;;;15.38;;
5054;SDS011;13829;48.990;8.346;2022-08-19T08:17:36;17.95;;;16.25;;
5054;SDS011;13829;48.990;8.346;2022-08-19T08:20:05;16.70;;;15.23;;
5054;SDS011;13829;48.990;8.346;2022-08-19T08:22:33;20.65;;;16.90;;
5054;SDS011;13829;48.990;8.346;2022-08-19T08:25:21;16.23;;;14.60;;
5054;SDS011;13829;48.990;8.346;2022-08-19T08:27:50;17.13;;;15.32;;
5054;SDS011;13829;48.990;8.346;2022-08-19T08:30:18;16.63;;;14.93;;
5054;SDS011;13829;48.990;8.346;2022-08-19T08:32:49;16.83;;;14.82;;
5054;SDS011;13829;48.990;8.346;2022-08-19T08:35:17;15.32;;;13.73;;
5054;SDS011;13829;48.990;8.346;2022-08-19T08:37:47;16.17;;;14.50;;
5054;SDS011;13829;48.990;8.346;2022-08-19T08:40:19;13.25;;;12.00;;
5054;SDS011;13829;48.990;8.346;2022-08-19T08:42:57;16.58;;;13.90;;
5054;SDS011;13829;48.990;8.346;2022-08-19T08:45:33;14.00;;;12.43;;
5054;SDS011;13829;48.990;8.346;2022-08-19T08:48:13;14.73;;;13.15;;
5054;SDS011;13829;48.990;8.346;2022-08-19T08:50:46;13.20;;;11.85;;
5054;SDS011;13829;48.990;8.346;2022-08-19T08:53:17;11.82;;;10.73;;
5054;SDS011;13829;48.990;8.346;2022-08-19T08:55:47;12.02;;;10.57;;
5054;SDS011;13829;48.990;8.346;2022-08-19T08:58:14;12.63;;;11.20;;
5054;SDS011;13829;48.990;8.346;2022-08-19T09:00:54;9.75;;;8.48;;
5054;SDS011;13829;48.990;8.346;2022-08-19T09:03:22;10.48;;;9.48;;
5054;SDS011;13829;48.990;8.346;2022-08-19T09:05:55;10.30;;;9.20;;
5054;SDS011;13829;48.990;8.346;2022-08-19T09:08:39;12.23;;;8.80;;
5054;SDS011;13829;48.990;8.346;2022-08-19T09:11:18;10.88;;;9.32;;
5054;SDS011;13829;48.990;8.346;2022-08-19T09:14:01;10.27;;;8.82;;
5054;SDS011;13829;48.990;8.346;2022-08-19T09:16:37;10.63;;;8.65;;
5054;SDS011;13829;48.990;8.346;2022-08-19T09:19:06;9.05;;;8.15;;
5054;SDS011;13829;48.990;8.346;2022-08-19T09:21:35;9.98;;;8.55;;
5054;SDS011;13829;48.990;8.346;2022-08-19T09:24:04;10.45;;;9.10;;
5054;SDS011;13829;48.990;8.346;2022-08-19T09:26:33;10.70;;;9.57;;
5054;SDS011;13829;48.990;8.346;2022-08-19T09:29:00;11.15;;;9.70;;
5054;SDS011;13829;48.990;8.346;2022-08-19T09:31:30;11.23;;;9.05;;
5054;SDS011;13829;48.990;8.346;2022-08-19T09:33:58;10.10;;;9.00;;
5054;SDS011;13829;48.990;8.346;2022-08-19T09:36:29;9.63;;;8.68;;
5054;SDS011;13829;48.990;8.346;2022-08-19T09:38:58;9.60;;;8.65;;
5054;SDS011;13829;48.990;8.346;2022-08-19T09:41:26;8.85;;;7.82;;
5054;SDS011;13829;48.990;8.346;2022-08-19T09:43:54;9.43;;;8.43;;
5054;SDS011;13829;48.990;8.346;2022-08-19T09:46:23;7.72;;;7.13;;
5054;SDS011;13829;48.990;8.346;2022-08-19T09:48:53;8.95;;;8.05;;
5054;SDS011;13829;48.990;8.346;2022-08-19T09:51:22;8.35;;;7.63;;
5054;SDS011;13829;48.990;8.346;2022-08-19T09:53:53;9.07;;;8.05;;
5054;SDS011;13829;48.990;8.346;2022-08-19T09:56:26;9.10;;;8.20;;
5054;SDS011;13829;48.990;8.346;2022-08-19T09:58:56;11.40;;;8.90;;
5054;SDS011;13829;48.990;8.346;2022-08-19T10:01:25;10.95;;;9.90;;
5054;SDS011;13829;48.990;8.346;2022-08-19T10:03:54;10.25;;;8.52;;
5054;SDS011;13829;48.990;8.346;2022-08-19T10:06:24;10.38;;;9.48;;
5054;SDS011;13829;48.990;8.346;2022-08-19T10:08:54;9.90;;;8.90;;
5054;SDS011;13829;48.990;8.346;2022-08-19T10:11:21;10.45;;;8.75;;
5054;SDS011;13829;48.990;8.346;2022-08-19T10:13:49;9.68;;;8.70;;
5054;SDS011;13829;48.990;8.346;2022-08-19T10:16:18;7.60;;;6.90;;
5054;SDS011;13829;48.990;8.346;2022-08-19T10:18:48;9.57;;;8.40;;
5054;SDS011;13829;48.990;8.346;2022-08-19T10:21:17;9.50;;;8.50;;
5054;SDS011;13829;48.990;8.346;2022-08-19T10:23:52;9.77;;;8.88;;
5054;SDS011;13829;48.990;8.346;2022-08-19T10:26:23;11.63;;;7.60;;
5054;SDS011;13829;48.990;8.346;2022-08-19T10:28:54;8.80;;;7.90;;
5054;SDS011;13829;48.990;8.346;2022-08-19T10:31:26;9.30;;;8.48;;
5054;SDS011;13829;48.990;8.346;2022-08-19T10:33:56;9.27;;;8.30;;
5054;SDS011;13829;48.990;8.346;2022-08-19T10:36:25;10.25;;;8.77;;
5054;SDS011;13829;48.990;8.346;2022-08-19T10:38:55;8.73;;;7.93;;
5054;SDS011;13829;48.990;8.346;2022-08-19T10:41:27;8.45;;;7.65;;
5054;SDS011;13829;48.990;8.346;2022-08-19T10:43:57;8.77;;;7.82;;
5054;SDS011;13829;48.990;8.346;2022-08-19T10:46:29;9.27;;;8.05;;
5054;SDS011;13829;48.990;8.346;2022-08-19T10:48:58;10.50;;;8.60;;
5054;SDS011;13829;48.990;8.346;2022-08-19T10:51:26;9.02;;;8.18;;
5054;SDS011;13829;48.990;8.346;2022-08-19T10:54:11;10.85;;;8.88;;
5054;SDS011;13829;48.990;8.346;2022-08-19T10:56:38;11.85;;;9.02;;
5054;SDS011;13829;48.990;8.346;2022-08-19T10:59:17;7.38;;;6.68;;
5054;SDS011;13829;48.990;8.346;2022-08-19T11:01:48;8.43;;;7.05;;
5054;SDS011;13829;48.990;8.346;2022-08-19T11:04:16;11.23;;;8.63;;
5054;SDS011;13829;48.990;8.346;2022-08-19T11:06:45;10.13;;;9.10;;
5054;SDS011;13829;48.990;8.346;2022-08-19T11:09:14;9.35;;;8.50;;
5054;SDS011;13829;48.990;8.346;2022-08-19T11:11:43;10.32;;;9.23;;
5054;SDS011;13829;48.990;8.346;2022-08-19T11:14:13;9.52;;;7.13;;
5054;SDS011;13829;48.990;8.346;2022-08-19T11:16:43;8.07;;;7.32;;
5054;SDS011;13829;48.990;8.346;2022-08-19T11:19:11;8.70;;;7.90;;
5054;SDS011;13829;48.990;8.346;2022-08-19T11:21:41;8.65;;;7.53;;
5054;SDS011;13829;48.990;8.346;2022-08-19T11:24:11;9.05;;;8.25;;
5054;SDS011;13829;48.990;8.346;2022-08-19T11:26:41;8.85;;;8.10;;
5054;SDS011;13829;48.990;8.346;2022-08-19T11:29:10;8.63;;;7.82;;
5054;SDS011;13829;48.990;8.346;2022-08-19T11:31:40;11.82;;;10.68;;
5054;SDS011;13829;48.990;8.346;2022-08-19T11:34:12;10.40;;;9.40;;
5054;SDS011;13829;48.990;8.346;2022-08-19T11:36:44;9.80;;;7.78;;
5054;SDS011;13829;48.990;8.346;2022-08-19T11:39:14;8.27;;;7.53;;
5054;SDS011;13829;48.990;8.346;2022-08-19T11:41:47;9.68;;;8.32;;
5054;SDS011;13829;48.990;8.346;2022-08-19T11:44:15;8.43;;;7.60;;
5054;SDS011;13829;48.990;8.346;2022-08-19T11:46:42;9.50;;;8.50;;
5054;SDS011;13829;48.990;8.346;2022-08-19T11:49:12;9.05;;;8.30;;
5054;SDS011;13829;48.990;8.346;2022-08-19T11:51:41;8.77;;;7.97;;
5054;SDS011;13829;48.990;8.346;2022-08-19T11:54:09;8.73;;;8.02;;
5054;SDS011;13829;48.990;8.346;2022-08-19T11:56:38;9.45;;;8.30;;
5054;SDS011;13829;48.990;8.346;2022-08-19T11:59:06;8.75;;;7.85;;
5054;SDS011;13829;48.990;8.346;2022-08-19T12:01:33;8.52;;;7.75;;
5054;SDS011;13829;48.990;8.346;2022-08-19T12:04:00;9.13;;;8.32;;
5054;SDS011;13829;48.990;8.346;2022-08-19T12:06:31;8.45;;;7.78;;
5054;SDS011;13829;48.990;8.346;2022-08-19T12:09:01;8.75;;;7.85;;
5054;SDS011;13829;48.990;8.346;2022-08-19T12:11:31;8.77;;;8.07;;
5054;SDS011;13829;48.990;8.346;2022-08-19T12:13:58;9.55;;;8.75;;
5054;SDS011;13829;48.990;8.346;2022-08-19T12:16:26;9.57;;;8.88;;
5054;SDS011;13829;48.990;8.346;2022-08-19T12:18:56;9.80;;;8.88;;
5054;SDS011;13829;48.990;8.346;2022-08-19T12:21:28;9.70;;;8.75;;
5054;SDS011;13829;48.990;8.346;2022-08-19T12:24:00;9.20;;;8.20;;
5054;SDS011;13829;48.990;8.346;2022-08-19T12:26:30;10.75;;;8.85;;
5054;SDS011;13829;48.990;8.346;2022-08-19T12:28:57;11.00;;;9.75;;
5054;SDS011;13829;48.990;8.346;2022-08-19T12:31:25;9.45;;;8.65;;
5054;SDS011;13829;48.990;8.346;2022-08-19T12:33:53;8.57;;;7.88;;
5054;SDS011;13829;48.990;8.346;2022-08-19T12:36:20;8.75;;;7.95;;
5054;SDS011;13829;48.990;8.346;2022-08-19T12:38:49;9.38;;;8.57;;
5054;SDS011;13829;48.990;8.346;2022-08-19T12:41:18;8.93;;;8.02;;
5054;SDS011;13829;48.990;8.346;2022-08-19T12:43:46;9.23;;;8.18;;
5054;SDS011;13829;48.990;8.346;2022-08-19T12:46:14;9.02;;;8.23;;
5054;SDS011;13829;48.990;8.346;2022-08-19T12:48:41;8.55;;;7.82;;
5054;SDS011;13829;48.990;8.346;2022-08-19T12:51:10;8.38;;;7.68;;
5054;SDS011;13829;48.990;8.346;2022-08-19T12:53:39;8.45;;;7.65;;
5054;SDS011;13829;48.990;8.346;2022-08-19T12:56:09;7.50;;;6.85;;
5054;SDS011;13829;48.990;8.346;2022-08-19T12:58:39;7.75;;;7.05;;
5054;SDS011;13829;48.990;8.346;2022-08-19T13:01:08;7.85;;;6.97;;
5054;SDS011;13829;48.990;8.346;2022-08-19T13:03:37;7.65;;;7.05;;
5054;SDS011;13829;48.990;8.346;2022-08-19T13:06:04;8.13;;;7.40;;
5054;SDS011;13829;48.990;8.346;2022-08-19T13:08:31;7.53;;;6.93;;
5054;SDS011;13829;48.990;8.346;2022-08-19T13:11:06;7.70;;;7.10;;
5054;SDS011;13829;48.990;8.346;2022-08-19T13:13:37;7.15;;;6.57;;
5054;SDS011;13829;48.990;8.346;2022-08-19T13:16:07;6.75;;;6.15;;
5054;SDS011;13829;48.990;8.346;2022-08-19T13:18:35;8.15;;;5.93;;
5054;SDS011;13829;48.990;8.346;2022-08-19T13:21:04;6.88;;;6.20;;
5054;SDS011;13829;48.990;8.346;2022-08-19T13:23:33;6.05;;;5.45;;
5054;SDS011;13829;48.990;8.346;2022-08-19T13:26:02;6.25;;;5.75;;
5054;SDS011;13829;48.990;8.346;2022-08-19T13:28:34;6.40;;;5.70;;
5054;SDS011;13829;48.990;8.346;2022-08-19T13:31:20;6.40;;;5.85;;
5054;SDS011;13829;48.990;8.346;2022-08-19T13:34:07;4.95;;;4.55;;
5054;SDS011;13829;48.990;8.346;2022-08-19T13:36:35;5.65;;;4.50;;
5054;SDS011;13829;48.990;8.346;2022-08-19T13:39:04;5.78;;;4.18;;
5054;SDS011;13829;48.990;8.346;2022-08-19T13:41:33;4.93;;;4.53;;
5054;SDS011;13829;48.990;8.346;2022-08-19T13:44:03;5.05;;;4.47;;
5054;SDS011;13829;48.990;8.346;2022-08-19T13:46:31;4.30;;;4.00;;
5054;SDS011;13829;48.990;8.346;2022-08-19T13:48:58;5.13;;;4.72;;
5054;SDS011;13829;48.990;8.346;2022-08-19T13:51:25;4.82;;;4.43;;
5054;SDS011;13829;48.990;8.346;2022-08-19T13:53:52;4.75;;;4.38;;
5054;SDS011;13829;48.990;8.346;2022-08-19T13:56:20;4.25;;;3.72;;
5054;SDS011;13829;48.990;8.346;2022-08-19T13:58:47;4.35;;;3.97;;
5054;SDS011;13829;48.990;8.346;2022-08-19T14:01:19;4.93;;;4.28;;
5054;SDS011;13829;48.990;8.346;2022-08-19T14:03:51;4.28;;;3.92;;
5054;SDS011;13829;48.990;8.346;2022-08-19T14:06:18;4.47;;;4.07;;
5054;SDS011;13829;48.990;8.346;2022-08-19T14:08:46;4.93;;;4.30;;
5054;SDS011;13829;48.990;8.346;2022-08-19T14:11:13;4.97;;;4.47;;
5054;SDS011;13829;48.990;8.346;2022-08-19T14:13:41;4.97;;;4.10;;
5054;SDS011;13829;48.990;8.346;2022-08-19T14:16:10;4.45;;;4.05;;
5054;SDS011;13829;48.990;8.346;2022-08-19T14:18:40;4.43;;;4.03;;
5054;SDS011;13829;48.990;8.346;2022-08-19T14:21:08;5.50;;;4.80;;
5054;SDS011;13829;48.990;8.346;2022-08-19T14:23:42;5.75;;;5.18;;
5054;SDS011;13829;48.990;8.346;2022-08-19T14:26:11;5.22;;;4.82;;
5054;SDS011;13829;48.990;8.346;2022-08-19T14:28:40;5.18;;;4.68;;
5054;SDS011;13829;48.990;8.346;2022-08-19T14:31:08;5.40;;;5.00;;
5054;SDS011;13829;48.990;8.346;2022-08-19T14:33:35;5.43;;;4.88;;
5054;SDS011;13829;48.990;8.346;2022-08-19T14:36:04;7.57;;;4.10;;
5054;SDS011;13829;48.990;8.346;2022-08-19T14:38:32;4.90;;;4.45;;
5054;SDS011;13829;48.990;8.346;2022-08-19T14:41:09;4.55;;;4.10;;
5054;SDS011;13829;48.990;8.346;2022-08-19T14:43:42;4.72;;;4.32;;
5054;SDS011;13829;48.990;8.346;2022-08-19T14:46:11;6.20;;;4.55;;
5054;SDS011;13829;48.990;8.346;2022-08-19T14:48:42;5.43;;;5.03;;
5054;SDS011;13829;48.990;8.346;2022-08-19T14:51:11;5.40;;;4.90;;
5054;SDS011;13829;48.990;8.346;2022-08-19T14:53:39;4.90;;;4.60;;
5054;SDS011;13829;48.990;8.346;2022-08-19T14:56:09;4.90;;;4.50;;
5054;SDS011;13829;48.990;8.346;2022-08-19T14:58:40;5.45;;;4.88;;